createdAt,value
2022-10-13T00:01:01.958Z,98393.75
2022-10-13T00:03:03.377Z,98399.72
2022-10-13T00:05:04.686Z,98392.97
2022-10-13T00:07:05.971Z,98393.06
2022-10-13T00:09:07.516Z,98395.63
2022-10-13T00:11:08.813Z,98398.09
2022-10-13T00:13:10.086Z,98388.63
2022-10-13T00:15:11.395Z,98391.97
2022-10-13T00:17:12.664Z,98387.69
2022-10-13T00:19:15.183Z,98388.56
2022-10-13T00:21:16.710Z,98390.25
2022-10-13T00:23:17.990Z,98385.19
2022-10-13T00:25:19.390Z,98386.94
2022-10-13T00:27:20.674Z,98381.81
2022-10-13T00:29:21.955Z,98385.19
2022-10-13T00:31:23.249Z,98383.53
2022-10-13T00:33:24.526Z,98389.50
2022-10-13T00:35:25.806Z,98381.81
2022-10-13T00:37:27.260Z,98377.63
2022-10-13T00:39:28.534Z,98377.63
2022-10-13T00:41:29.818Z,98375.06
2022-10-13T00:43:31.123Z,98386.09
2022-10-13T00:45:32.416Z,98386.09
2022-10-13T00:47:33.707Z,98380.94
2022-10-13T00:49:35.119Z,98384.28
2022-10-13T00:51:36.391Z,98382.59
2022-10-13T00:53:37.668Z,98380.88
2022-10-13T00:55:38.947Z,98386.03
2022-10-13T00:57:40.249Z,98377.53
2022-10-13T00:59:41.526Z,98380.03
2022-10-13T01:01:42.855Z,98374.91
2022-10-13T01:03:44.115Z,98372.38
2022-10-13T01:05:45.399Z,98368.97
2022-10-13T01:07:49.071Z,98363.03
2022-10-13T01:09:50.343Z,98371.59
2022-10-13T01:11:52.572Z,98363.13
2022-10-13T01:13:53.889Z,98369.97
2022-10-13T01:15:55.207Z,98362.22
2022-10-13T01:17:56.502Z,98359.69
2022-10-13T01:19:57.819Z,98369.09
2022-10-13T01:21:59.090Z,98363.97
2022-10-13T01:24:00.392Z,98360.50
2022-10-13T01:26:01.706Z,98357.03
2022-10-13T01:28:02.990Z,98356.16
2022-10-13T01:30:04.314Z,98356.19
2022-10-13T01:32:05.803Z,98353.78
2022-10-13T01:34:07.075Z,98358.13
2022-10-13T01:36:08.368Z,98353.97
2022-10-13T01:38:09.676Z,98359.13
2022-10-13T01:40:10.941Z,98351.47
2022-10-13T01:42:13.193Z,98350.66
2022-10-13T01:44:16.190Z,98350.69
2022-10-13T01:46:17.530Z,98344.75
2022-10-13T01:48:18.805Z,98348.09
2022-10-13T01:50:20.112Z,98345.56
2022-10-13T01:52:21.801Z,98344.69
2022-10-13T01:54:23.177Z,98339.59
2022-10-13T01:56:24.582Z,98337.78
2022-10-13T01:58:25.849Z,98342.03
2022-10-13T02:00:27.222Z,98342.03
2022-10-13T02:02:28.538Z,98340.28
2022-10-13T02:04:29.800Z,98337.69
2022-10-13T02:06:31.109Z,98339.34
2022-10-13T02:08:32.438Z,98339.28
2022-10-13T02:10:33.705Z,98340.09
2022-10-13T02:12:34.975Z,98333.28
2022-10-13T02:14:36.250Z,98329.88
2022-10-13T02:16:37.539Z,98330.63
2022-10-13T02:18:38.810Z,98328.06
2022-10-13T02:20:40.082Z,98331.50
2022-10-13T02:22:41.578Z,98323.78
2022-10-13T02:24:42.917Z,98329.75
2022-10-13T02:26:44.169Z,98328.84
2022-10-13T02:28:45.487Z,98332.25
2022-10-13T02:30:46.836Z,98330.56
2022-10-13T02:32:48.144Z,98319.53
2022-10-13T02:34:49.459Z,98330.66
2022-10-13T02:36:50.756Z,98324.75
2022-10-13T02:38:52.050Z,98327.25
2022-10-13T02:40:54.854Z,98321.28
2022-10-13T02:42:56.142Z,98322.09
2022-10-13T02:44:57.494Z,98320.28
2022-10-13T02:46:58.791Z,98318.53
2022-10-13T02:49:00.096Z,98313.41
2022-10-13T02:51:01.368Z,98313.47
2022-10-13T02:53:02.632Z,98311.75
2022-10-13T02:55:03.908Z,98309.22
2022-10-13T02:57:05.186Z,98311.78
2022-10-13T02:59:06.454Z,98313.47
2022-10-13T03:01:07.799Z,98317.72
2022-10-13T03:03:09.183Z,98322.78
2022-10-13T03:05:10.486Z,98316.81
2022-10-13T03:07:11.762Z,98315.09
2022-10-13T03:09:13.043Z,98318.53
2022-10-13T03:11:14.344Z,98325.34
2022-10-13T03:13:15.677Z,98317.72
2022-10-13T03:15:16.982Z,98321.09
2022-10-13T03:17:18.264Z,98321.09
2022-10-13T03:19:19.564Z,98330.50
2022-10-13T03:21:20.838Z,98330.47
2022-10-13T03:23:22.110Z,98322.84
2022-10-13T03:25:23.407Z,98321.09
2022-10-13T03:27:24.731Z,98315.97
2022-10-13T03:29:26.058Z,98313.41
2022-10-13T03:31:27.336Z,98319.38
2022-10-13T03:33:28.761Z,98309.16
2022-10-13T03:35:30.523Z,98314.13
2022-10-13T03:37:31.795Z,98315.81
2022-10-13T03:39:33.114Z,98312.41
2022-10-13T03:41:34.406Z,98312.47
2022-10-13T03:43:35.695Z,98315.06
2022-10-13T03:45:36.954Z,98312.56
2022-10-13T03:47:38.243Z,98311.66
2022-10-13T03:49:39.528Z,98307.44
2022-10-13T03:51:40.953Z,98307.44
2022-10-13T03:53:42.225Z,98307.44
2022-10-13T03:55:43.556Z,98304.09
2022-10-13T03:57:44.850Z,98308.31
2022-10-13T03:59:46.158Z,98306.66
2022-10-13T04:01:47.526Z,98309.16
2022-10-13T04:03:48.903Z,98298.09
2022-10-13T04:05:50.183Z,98291.31
2022-10-13T04:07:51.745Z,98300.75
2022-10-13T04:09:53.258Z,98293.97
2022-10-13T04:11:54.544Z,98300.84
2022-10-13T04:13:55.815Z,98297.47
2022-10-13T04:15:57.101Z,98294.81
2022-10-13T04:17:58.394Z,98292.44
2022-10-13T04:19:59.669Z,98294.97
2022-10-13T04:22:00.982Z,98285.63
2022-10-13T04:24:02.264Z,98173.88
2022-10-13T04:26:03.610Z,98288.22
2022-10-13T04:28:05.082Z,98280.56
2022-10-13T04:30:06.392Z,98284.00
2022-10-13T04:32:07.671Z,98279.66
2022-10-13T04:34:08.980Z,98282.09
2022-10-13T04:36:10.274Z,98282.94
2022-10-13T04:38:11.559Z,98278.69
2022-10-13T04:40:12.850Z,98266.72
2022-10-13T04:42:14.182Z,98272.63
2022-10-13T04:44:15.491Z,98274.34
2022-10-13T04:46:17.867Z,98277.72
2022-10-13T04:48:19.210Z,98275.94
2022-10-13T04:50:20.482Z,98272.50
2022-10-13T04:52:21.965Z,98275.06
2022-10-13T04:54:23.332Z,98277.56
2022-10-13T04:56:24.856Z,98265.69
2022-10-13T04:58:26.182Z,98270.81
2022-10-13T05:00:27.522Z,98277.63
2022-10-13T05:02:28.903Z,98275.91
2022-10-13T05:04:30.179Z,98267.34
2022-10-13T05:06:31.508Z,98268.19
2022-10-13T05:08:33.968Z,98267.34
2022-10-13T05:10:35.394Z,98147.22
2022-10-13T05:12:36.670Z,98263.09
2022-10-13T05:14:37.938Z,98264.84
2022-10-13T05:16:39.271Z,98264.06
2022-10-13T05:18:40.650Z,98266.63
2022-10-13T05:20:41.919Z,98261.50
2022-10-13T05:22:43.190Z,98267.50
2022-10-13T05:24:44.701Z,98265.81
2022-10-13T05:26:46.007Z,98261.47
2022-10-13T05:28:47.478Z,98255.41
2022-10-13T05:30:48.813Z,98267.34
2022-10-13T05:32:53.752Z,98269.91
2022-10-13T05:34:55.338Z,98269.94
2022-10-13T05:36:56.614Z,98265.81
2022-10-13T05:38:57.914Z,98264.97
2022-10-13T05:40:59.195Z,98259.03
2022-10-13T05:43:00.691Z,98268.31
2022-10-13T05:45:01.974Z,98275.97
2022-10-13T05:47:07.333Z,98270.88
2022-10-13T05:49:08.995Z,98263.22
2022-10-13T05:51:10.323Z,98275.13
2022-10-13T05:53:11.582Z,98274.13
2022-10-13T05:55:12.879Z,98273.19
2022-10-13T05:57:14.210Z,98051.91
2022-10-13T05:59:15.740Z,98271.50
2022-10-13T06:01:17.257Z,98276.63
2022-10-13T06:03:18.542Z,98271.50
2022-10-13T06:05:19.839Z,98264.72
2022-10-13T06:07:21.105Z,98270.59
2022-10-13T06:09:22.391Z,98269.78
2022-10-13T06:11:23.668Z,98270.63
2022-10-13T06:13:24.974Z,98259.63
2022-10-13T06:15:28.308Z,98262.19
2022-10-13T06:17:29.799Z,98259.69
2022-10-13T06:19:31.090Z,98269.16
2022-10-13T06:21:32.382Z,98266.63
2022-10-13T06:23:33.748Z,98257.22
2022-10-13T06:25:35.665Z,98264.84
2022-10-13T06:27:36.945Z,98252.91
2022-10-13T06:29:38.279Z,98262.19
2022-10-13T06:31:39.543Z,98257.06
2022-10-13T06:33:40.899Z,98257.00
2022-10-13T06:35:42.200Z,98261.25
2022-10-13T06:37:43.800Z,98257.00
2022-10-13T06:39:45.074Z,98260.53
2022-10-13T06:41:46.385Z,98253.72
2022-10-13T06:43:47.754Z,98248.13
2022-10-13T06:45:49.094Z,98262.78
2022-10-13T06:47:50.377Z,98279.16
2022-10-13T06:49:51.651Z,98268.16
2022-10-13T06:51:52.919Z,98256.91
2022-10-13T06:53:54.191Z,98259.00
2022-10-13T06:55:55.532Z,98262.47
2022-10-13T06:57:56.942Z,98266.16
2022-10-13T06:59:58.480Z,98261.63
2022-10-13T07:01:59.749Z,98257.19
2022-10-13T07:04:01.050Z,98256.13
2022-10-13T07:06:02.363Z,98257.72
2022-10-13T07:08:03.639Z,98256.75
2022-10-13T07:10:04.914Z,98259.22
2022-10-13T07:12:07.481Z,98250.63
2022-10-13T07:14:08.762Z,98259.88
2022-10-13T07:16:10.036Z,98252.13
2022-10-13T07:18:11.417Z,98252.06
2022-10-13T07:20:12.735Z,98248.66
2022-10-13T07:22:14.007Z,98247.75
2022-10-13T07:24:15.278Z,98245.94
2022-10-13T07:26:16.563Z,98249.41
2022-10-13T07:28:17.880Z,98252.75
2022-10-13T07:30:19.247Z,98244.50
2022-10-13T07:32:20.519Z,98249.75
2022-10-13T07:34:22.587Z,98243.94
2022-10-13T07:36:24.035Z,98251.75
2022-10-13T07:38:25.310Z,98256.97
2022-10-13T07:40:26.914Z,98261.28
2022-10-13T07:42:28.179Z,98264.81
2022-10-13T07:44:29.505Z,98259.81
2022-10-13T07:46:30.771Z,98257.31
2022-10-13T07:48:32.054Z,98253.00
2022-10-13T07:50:33.393Z,98251.97
2022-10-13T07:52:34.651Z,98259.47
2022-10-13T07:54:36.016Z,98259.31
2022-10-13T07:56:37.530Z,98257.56
2022-10-13T07:58:38.926Z,98245.59
2022-10-13T08:00:40.275Z,98242.97
2022-10-13T08:02:41.590Z,98248.97
2022-10-13T08:04:42.874Z,98245.53
2022-10-13T08:06:44.207Z,98248.03
2022-10-13T08:08:45.808Z,98247.84
2022-10-13T08:10:47.191Z,98241.72
2022-10-13T08:12:48.512Z,98244.22
2022-10-13T08:16:56.345Z,98239.97
2022-10-13T08:18:57.647Z,98247.75
2022-10-13T08:21:23.875Z,98242.59
2022-10-13T08:23:20.246Z,98246.81
2022-10-13T08:25:21.568Z,98242.63
2022-10-13T08:27:22.864Z,98111.38
2022-10-13T08:29:24.616Z,98245.25
2022-10-13T08:31:26.322Z,98240.47
2022-10-13T08:33:27.817Z,98242.44
2022-10-13T08:35:34.134Z,98245.16
2022-10-13T08:37:36.391Z,98246.91
2022-10-13T08:39:37.675Z,98243.63
2022-10-13T08:41:39.003Z,98241.13
2022-10-13T08:43:54.833Z,98234.16
2022-10-13T08:46:01.586Z,98231.78
2022-10-13T08:48:03.234Z,98236.88
2022-10-13T08:50:04.513Z,98236.13
2022-10-13T08:52:05.835Z,98229.31
2022-10-13T08:54:07.109Z,98231.69
2022-10-13T08:56:08.459Z,98232.44
2022-10-13T08:58:09.742Z,98230.78
2022-10-13T09:00:11.027Z,98232.38
2022-10-13T09:02:12.646Z,98234.19
2022-10-13T09:04:13.920Z,98233.31
2022-10-13T09:06:15.249Z,98227.56
2022-10-13T09:08:16.548Z,98223.34
2022-10-13T09:10:18.739Z,98224.22
2022-10-13T09:12:28.034Z,98220.84
2022-10-13T09:14:29.385Z,98222.50
2022-10-13T09:16:30.658Z,98212.06
2022-10-13T09:18:32.017Z,98217.69
2022-10-13T09:20:33.368Z,98206.50
2022-10-13T09:22:34.687Z,98211.56
2022-10-13T09:24:36.001Z,98209.00
2022-10-13T09:26:37.326Z,98215.00
2022-10-13T09:28:38.728Z,98215.97
2022-10-13T09:30:40.030Z,98214.25
2022-10-13T09:32:41.419Z,98204.84
2022-10-13T09:34:42.782Z,98200.66
2022-10-13T09:36:44.049Z,98212.53
2022-10-13T09:38:45.367Z,98204.03
2022-10-13T09:40:46.652Z,98206.56
2022-10-13T09:42:47.964Z,98208.22
2022-10-13T09:44:49.254Z,98207.25
2022-10-13T09:46:50.539Z,98201.09
2022-10-13T09:48:51.927Z,98205.19
2022-10-13T09:50:53.204Z,98194.78
2022-10-13T09:52:54.482Z,98196.38
2022-10-13T09:54:55.802Z,98193.72
2022-10-13T09:56:57.123Z,98193.63
2022-10-13T09:58:58.409Z,98193.38
2022-10-13T10:00:59.678Z,98196.94
2022-10-13T10:03:00.946Z,98192.00
2022-10-13T10:05:02.259Z,98185.38
2022-10-13T10:07:03.518Z,98188.03
2022-10-13T10:09:05.317Z,98191.47
2022-10-13T10:11:06.735Z,98189.81
2022-10-13T10:13:08.016Z,98186.72
2022-10-13T10:15:09.311Z,98184.31
2022-10-13T10:17:10.635Z,98179.78
2022-10-13T10:19:11.984Z,98178.38
2022-10-13T10:21:14.643Z,98171.66
2022-10-13T10:23:15.956Z,98170.22
2022-10-13T10:25:17.291Z,98172.09
2022-10-13T10:27:21.639Z,98163.09
2022-10-13T10:29:22.936Z,98166.41
2022-10-13T10:31:24.326Z,98162.53
2022-10-13T10:33:25.623Z,98155.94
2022-10-13T10:35:27.350Z,98162.84
2022-10-13T10:37:28.679Z,98153.59
2022-10-13T10:39:29.959Z,98159.03
2022-10-13T10:41:31.280Z,98167.38
2022-10-13T10:43:32.626Z,98153.66
2022-10-13T10:45:33.959Z,98150.34
2022-10-13T10:47:35.277Z,98149.28
2022-10-13T10:49:36.565Z,98150.34
2022-10-13T10:51:37.946Z,98153.00
2022-10-13T10:53:39.251Z,98134.03
2022-10-13T10:55:40.548Z,98142.75
2022-10-13T10:57:41.861Z,98133.81
2022-10-13T10:59:43.186Z,98131.16
2022-10-13T11:01:44.712Z,98129.31
2022-10-13T11:03:46.045Z,98130.84
2022-10-13T11:05:47.430Z,98133.13
2022-10-13T11:07:48.700Z,98125.31
2022-10-13T11:09:53.113Z,98121.03
2022-10-13T11:11:54.413Z,98044.31
2022-10-13T11:13:55.686Z,98133.44
2022-10-13T11:15:57.031Z,98121.56
2022-10-13T11:17:58.329Z,98118.22
2022-10-13T11:20:00.806Z,98113.94
2022-10-13T11:22:02.118Z,98109.66
2022-10-13T11:24:03.408Z,98117.31
2022-10-13T11:26:04.719Z,98099.41
2022-10-13T11:28:06.079Z,98098.53
2022-10-13T11:30:07.430Z,98105.31
2022-10-13T11:32:08.702Z,98106.16
2022-10-13T11:34:10.049Z,98097.59
2022-10-13T11:36:11.378Z,98094.06
2022-10-13T11:38:16.846Z,98089.72
2022-10-13T11:40:19.127Z,98092.69
2022-10-13T11:42:20.749Z,98095.56
2022-10-13T11:44:22.175Z,98095.84
2022-10-13T11:46:24.134Z,98096.06
2022-10-13T11:48:25.398Z,98097.84
2022-10-13T11:50:26.686Z,98093.84
2022-10-13T11:52:28.249Z,98090.34
2022-10-13T11:54:29.569Z,98093.09
2022-10-13T11:56:30.866Z,98093.28
2022-10-13T11:58:32.265Z,98088.69
2022-10-13T12:00:33.583Z,98088.09
2022-10-13T12:02:34.968Z,98085.53
2022-10-13T12:04:36.299Z,98086.66
2022-10-13T12:06:37.610Z,98072.41
2022-10-13T12:08:38.902Z,98069.72
2022-10-13T12:10:40.196Z,98075.13
2022-10-13T12:12:41.507Z,98067.09
2022-10-13T12:14:45.779Z,98062.88
2022-10-13T12:16:47.134Z,98064.34
2022-10-13T12:18:48.449Z,98048.75
2022-10-13T12:20:49.733Z,98054.78
2022-10-13T12:22:51.067Z,98064.34
2022-10-13T12:24:52.439Z,98063.84
2022-10-13T12:26:53.740Z,98046.84
2022-10-13T12:28:55.133Z,98047.69
2022-10-13T12:30:56.654Z,98040.09
2022-10-13T12:32:57.931Z,98046.06
2022-10-13T12:34:59.198Z,98046.19
2022-10-13T12:37:00.619Z,98042.94
2022-10-13T12:39:01.960Z,98038.72
2022-10-13T12:41:03.274Z,98033.75
2022-10-13T12:43:05.104Z,98035.78
2022-10-13T12:45:06.417Z,98032.44
2022-10-13T12:47:07.760Z,98029.78
2022-10-13T12:49:09.195Z,98036.81
2022-10-13T12:51:10.535Z,98051.16
2022-10-13T12:53:12.218Z,98028.81
2022-10-13T12:55:13.494Z,98027.38
2022-10-13T12:57:14.780Z,98023.25
2022-10-13T12:59:16.162Z,98024.00
2022-10-13T13:01:17.543Z,98026.47
2022-10-13T13:03:18.895Z,98030.41
2022-10-13T13:05:20.216Z,98028.25
2022-10-13T13:07:21.533Z,98021.25
2022-10-13T13:09:22.868Z,98021.03
2022-10-13T13:11:24.630Z,98011.41
2022-10-13T13:13:25.907Z,98015.38
2022-10-13T13:15:27.195Z,98016.16
2022-10-13T13:19:49.859Z,98025.00
2022-10-13T13:23:57.400Z,98028.00
2022-10-13T13:25:58.938Z,98027.31
2022-10-13T13:28:00.201Z,98024.06
2022-10-13T13:30:01.473Z,98021.66
2022-10-13T13:32:02.762Z,98025.78
2022-10-13T13:34:04.103Z,98022.53
2022-10-13T13:36:05.404Z,98020.19
2022-10-13T13:38:06.675Z,98016.94
2022-10-13T13:40:07.991Z,98015.03
2022-10-13T13:42:09.298Z,98011.72
2022-10-13T13:44:10.578Z,98010.25
2022-10-13T13:46:11.887Z,98006.06
2022-10-13T13:48:13.327Z,98001.94
2022-10-13T13:50:14.801Z,98010.28
2022-10-13T13:52:16.109Z,98011.50
2022-10-13T13:54:17.400Z,98008.22
2022-10-13T13:56:18.673Z,98013.41
2022-10-13T13:58:20.771Z,98012.06
2022-10-13T14:00:22.043Z,98008.72
2022-10-13T14:02:23.802Z,98008.13
2022-10-13T14:06:26.467Z,98004.88
2022-10-13T14:08:27.815Z,98015.03
2022-10-13T14:10:29.315Z,98012.13
2022-10-13T14:12:30.755Z,98006.00
2022-10-13T14:14:32.231Z,97999.06
2022-10-13T14:16:33.530Z,98002.66
2022-10-13T14:18:34.872Z,98010.34
2022-10-13T14:20:36.154Z,98000.34
2022-10-13T14:22:37.423Z,98003.03
2022-10-13T14:26:40.377Z,98000.88
2022-10-13T14:28:42.252Z,98002.53
2022-10-13T14:30:43.633Z,98000.47
2022-10-13T14:32:45.120Z,98004.69
2022-10-13T14:34:46.411Z,97990.16
2022-10-13T14:36:47.998Z,97988.63
2022-10-13T14:38:51.284Z,97995.84
2022-10-13T14:40:52.562Z,97997.44
2022-10-13T14:42:55.442Z,97996.06
2022-10-13T14:44:56.729Z,97989.28
2022-10-13T14:46:58.044Z,97992.47
2022-10-13T14:49:00.333Z,97990.38
2022-10-13T14:51:01.870Z,97993.31
2022-10-13T14:53:03.478Z,97991.38
2022-10-13T14:55:04.920Z,97990.91
2022-10-13T14:57:08.068Z,97983.63
2022-10-13T14:59:09.423Z,97987.41
2022-10-13T15:01:10.718Z,97984.16
2022-10-13T15:03:12.080Z,97985.19
2022-10-13T15:05:13.458Z,97987.81
2022-10-13T15:07:14.842Z,97985.25
2022-10-13T15:09:16.177Z,97992.63
2022-10-13T15:11:17.444Z,97991.88
2022-10-13T15:13:18.725Z,97989.78
2022-10-13T15:15:20.158Z,97982.97
2022-10-13T15:17:21.439Z,97992.41
2022-10-13T15:19:22.927Z,97985.50
2022-10-13T15:21:24.266Z,97988.63
2022-10-13T15:23:25.583Z,97978.72
2022-10-13T15:25:27.221Z,97983.31
2022-10-13T15:27:29.085Z,97979.38
2022-10-13T15:29:30.360Z,97988.38
2022-10-13T15:31:31.628Z,97973.41
2022-10-13T15:33:32.986Z,97981.47
2022-10-13T15:35:34.335Z,97975.25
2022-10-13T15:37:35.677Z,97979.38
2022-10-13T15:39:36.993Z,97980.47
2022-10-13T15:41:38.270Z,97977.81
2022-10-13T15:43:39.634Z,97972.53
2022-10-13T15:45:40.930Z,97968.72
2022-10-13T15:47:42.214Z,97970.78
2022-10-13T15:49:43.525Z,97968.53
2022-10-13T15:51:44.807Z,97965.16
2022-10-13T15:53:46.135Z,97961.63
2022-10-13T15:55:47.419Z,97952.25
2022-10-13T15:57:48.745Z,97941.28
2022-10-13T15:59:50.090Z,97948.13
2022-10-13T16:01:51.393Z,97942.75
2022-10-13T16:03:52.695Z,97945.31
2022-10-13T16:05:54.043Z,97946.94
2022-10-13T16:07:55.322Z,97957.16
2022-10-13T16:09:56.671Z,97957.19
2022-10-13T16:11:57.962Z,97957.19
2022-10-13T16:13:59.764Z,97959.72
2022-10-13T16:16:01.259Z,97961.34
2022-10-13T16:18:02.764Z,97962.41
2022-10-13T16:20:04.073Z,97963.31
2022-10-13T16:22:05.386Z,97962.97
2022-10-13T16:24:06.736Z,97964.63
2022-10-13T16:26:08.165Z,97967.66
2022-10-13T16:28:09.530Z,97966.78
2022-10-13T16:30:10.859Z,97962.06
2022-10-13T16:32:12.257Z,97966.78
2022-10-13T16:34:16.614Z,97962.31
2022-10-13T16:36:17.983Z,97969.88
2022-10-13T16:38:19.254Z,97960.69
2022-10-13T16:40:20.555Z,97962.91
2022-10-13T16:42:21.866Z,97955.72
2022-10-13T16:44:23.131Z,97959.28
2022-10-13T16:46:24.539Z,97961.84
2022-10-13T16:48:27.924Z,97958.09
2022-10-13T16:50:29.226Z,97950.41
2022-10-13T16:52:30.566Z,97955.34
2022-10-13T16:54:32.904Z,97947.28
2022-10-13T16:56:34.251Z,97958.28
2022-10-13T16:58:43.318Z,97945.81
2022-10-13T17:00:44.689Z,97958.31
2022-10-13T17:02:46.062Z,97950.91
2022-10-13T17:04:47.319Z,97951.09
2022-10-13T17:06:49.164Z,97937.63
2022-10-13T17:08:50.495Z,97942.69
2022-10-13T17:10:57.845Z,97947.25
2022-10-13T17:12:59.641Z,97951.00
2022-10-13T17:15:00.976Z,97952.59
2022-10-13T17:17:02.281Z,97952.69
2022-10-13T17:19:03.556Z,97952.44
2022-10-13T17:21:05.075Z,97964.63
2022-10-13T17:23:06.571Z,97948.75
2022-10-13T17:25:07.891Z,97952.56
2022-10-13T17:27:09.173Z,97944.97
2022-10-13T17:29:19.323Z,97947.78
2022-10-13T17:31:20.626Z,97956.31
2022-10-13T17:33:21.884Z,97951.47
2022-10-13T17:35:23.473Z,97956.72
2022-10-13T17:37:24.784Z,97951.69
2022-10-13T17:39:26.270Z,97952.53
2022-10-13T17:41:27.590Z,97961.78
2022-10-13T17:43:29.162Z,97955.91
2022-10-13T17:45:30.583Z,97948.66
2022-10-13T17:47:31.923Z,97954.53
2022-10-13T17:49:33.204Z,97951.06
2022-10-13T17:51:34.496Z,97959.19
2022-10-13T17:53:35.846Z,97960.28
2022-10-13T17:55:37.135Z,97965.47
2022-10-13T17:57:38.441Z,97957.19
2022-10-13T17:59:39.709Z,97951.72
2022-10-13T18:01:43.869Z,97958.28
2022-10-13T18:03:45.427Z,97942.91
2022-10-13T18:05:47.004Z,97945.06
2022-10-13T18:07:48.295Z,97944.94
2022-10-13T18:09:49.612Z,97949.97
2022-10-13T18:11:52.153Z,97950.50
2022-10-13T18:13:53.496Z,97944.31
2022-10-13T18:16:00.687Z,97948.56
2022-10-13T18:18:01.964Z,97939.19
2022-10-13T18:20:10.379Z,97950.91
2022-10-13T18:22:30.026Z,97939.88
2022-10-13T18:24:31.338Z,97947.56
2022-10-13T18:26:32.641Z,97945.78
2022-10-13T18:28:34.013Z,97943.94
2022-10-13T18:30:35.579Z,97948.03
2022-10-13T18:32:39.898Z,97952.22
2022-10-13T18:34:41.188Z,97948.72
2022-10-13T18:36:43.264Z,97958.03
2022-10-13T18:38:44.586Z,97956.41
2022-10-13T18:40:45.860Z,97958.13
2022-10-13T18:42:49.630Z,97965.84
2022-10-13T18:44:57.155Z,97958.28
2022-10-13T18:46:58.437Z,97952.53
2022-10-13T18:48:59.746Z,97947.50
2022-10-13T18:51:01.023Z,97947.09
2022-10-13T18:53:02.332Z,97948.34
2022-10-13T18:55:03.662Z,97953.22
2022-10-13T18:57:04.956Z,97954.00
2022-10-13T18:59:06.225Z,97947.97
2022-10-13T19:01:07.567Z,97950.94
2022-10-13T19:03:08.898Z,97947.78
2022-10-13T19:05:10.180Z,97944.75
2022-10-13T19:07:11.446Z,97943.19
2022-10-13T19:09:13.018Z,97943.06
2022-10-13T19:11:14.326Z,97942.34
2022-10-13T19:13:15.633Z,97943.69
2022-10-13T19:15:16.914Z,97944.72
2022-10-13T19:17:18.517Z,97947.47
2022-10-13T19:19:20.148Z,97942.91
2022-10-13T19:21:30.516Z,97946.56
2022-10-13T19:23:31.850Z,97939.75
2022-10-13T19:25:33.182Z,97942.00
2022-10-13T19:27:34.494Z,97950.88
2022-10-13T19:29:38.839Z,97944.63
2022-10-13T19:31:40.239Z,97957.41
2022-10-13T19:33:45.460Z,97948.03
2022-10-13T19:35:46.718Z,97948.88
2022-10-13T19:37:47.985Z,97952.03
2022-10-13T19:39:49.263Z,97948.31
2022-10-13T19:41:53.438Z,97951.63
2022-10-13T19:43:54.772Z,97951.69
2022-10-13T19:45:59.650Z,97948.25
2022-10-13T19:48:01.206Z,97949.88
2022-10-13T19:50:02.509Z,97951.19
2022-10-13T19:52:04.066Z,97944.38
2022-10-13T19:54:05.398Z,97941.81
2022-10-13T19:56:06.687Z,97938.38
2022-10-13T19:58:08.027Z,97946.84
2022-10-13T20:00:09.318Z,97950.28
2022-10-13T20:02:13.659Z,97949.47
2022-10-13T20:04:15.531Z,97951.19
2022-10-13T20:06:16.828Z,97953.75
2022-10-13T20:08:22.552Z,97952.13
2022-10-13T20:10:23.831Z,97957.34
2022-10-13T20:12:25.378Z,97959.03
2022-10-13T20:14:26.699Z,97955.78
2022-10-13T20:16:28.437Z,97959.81
2022-10-13T20:18:29.738Z,97960.13
2022-10-13T20:20:30.998Z,97946.78
2022-10-13T20:22:32.522Z,97954.25
2022-10-13T20:24:33.849Z,97949.81
2022-10-13T20:26:35.202Z,97958.97
2022-10-13T20:28:41.939Z,97959.91
2022-10-13T20:30:44.321Z,97959.13
2022-10-13T20:32:45.636Z,97958.09
2022-10-13T20:34:46.917Z,97946.84
2022-10-13T20:36:48.307Z,97954.44
2022-10-13T20:38:49.823Z,97952.75
2022-10-13T20:40:51.116Z,97943.31
2022-10-13T20:42:52.438Z,97946.84
2022-10-13T20:44:53.906Z,97938.38
2022-10-13T20:46:55.461Z,97932.34
2022-10-13T20:49:13.485Z,97929.75
2022-10-13T20:51:15.334Z,97927.22
2022-10-13T20:53:17.190Z,97925.66
2022-10-13T20:55:18.518Z,97923.06
2022-10-13T20:57:20.191Z,97917.31
2022-10-13T20:59:21.691Z,97915.59
2022-10-13T21:01:23.204Z,97919.94
2022-10-13T21:03:24.509Z,97920.00
2022-10-13T21:05:25.837Z,97925.06
2022-10-13T21:07:28.485Z,97931.88
2022-10-13T21:09:29.762Z,97937.09
2022-10-13T21:11:31.085Z,97941.38
2022-10-13T21:13:32.370Z,97942.22
2022-10-13T21:15:33.641Z,97933.69
2022-10-13T21:17:36.240Z,97933.47
2022-10-13T21:19:38.886Z,97936.38
2022-10-13T21:21:40.162Z,97931.81
2022-10-13T21:23:41.474Z,97939.41
2022-10-13T21:25:42.804Z,97937.50
2022-10-13T21:27:44.070Z,97934.72
2022-10-13T21:29:45.359Z,97943.06
2022-10-13T21:31:46.660Z,97937.94
2022-10-13T21:33:47.968Z,97942.94
2022-10-13T21:35:49.258Z,97940.44
2022-10-13T21:37:50.525Z,97930.94
2022-10-13T21:39:53.399Z,97929.88
2022-10-13T21:41:54.702Z,97934.75
2022-10-13T21:43:55.989Z,97928.06
2022-10-13T21:45:57.291Z,97938.81
2022-10-13T21:47:58.874Z,97929.63
2022-10-13T21:50:00.430Z,97934.13
2022-10-13T21:52:01.855Z,97933.44
2022-10-13T21:54:03.188Z,97938.72
2022-10-13T21:56:04.495Z,97937.81
2022-10-13T21:58:05.795Z,97936.09
2022-10-13T22:00:07.156Z,97933.28
2022-10-13T22:02:08.431Z,97932.47
2022-10-13T22:04:09.697Z,97936.69
2022-10-13T22:06:15.904Z,97935.25
2022-10-13T22:08:28.682Z,97931.72
2022-10-13T22:10:38.738Z,97932.94
2022-10-13T22:12:40.058Z,97933.50
2022-10-13T22:14:41.341Z,97932.47
2022-10-13T22:16:42.641Z,97934.25
2022-10-13T22:18:43.986Z,97927.66
2022-10-13T22:20:45.241Z,97917.09
2022-10-13T22:22:46.550Z,97923.66
2022-10-13T22:24:47.871Z,97921.56
2022-10-13T22:26:49.145Z,97925.19
2022-10-13T22:28:51.706Z,97924.50
2022-10-13T22:30:53.074Z,97917.81
2022-10-13T22:32:54.382Z,97923.53
2022-10-13T22:34:55.705Z,97920.38
2022-10-13T22:36:56.988Z,97917.50
2022-10-13T22:38:58.306Z,97918.75
2022-10-13T22:40:59.584Z,97913.81
2022-10-13T22:43:00.888Z,97913.03
2022-10-13T22:45:02.394Z,97903.91
2022-10-13T22:47:03.704Z,97905.97
2022-10-13T22:49:05.011Z,97906.13
2022-10-13T22:51:06.326Z,97903.72
2022-10-13T22:53:07.605Z,97903.56
2022-10-13T22:55:08.915Z,97908.66
2022-10-13T22:57:10.176Z,97902.53
2022-10-13T22:59:11.467Z,97901.78
2022-10-13T23:01:12.771Z,97906.28
2022-10-13T23:03:14.132Z,97901.59
2022-10-13T23:05:15.444Z,97901.00
2022-10-13T23:07:16.719Z,97895.50
2022-10-13T23:09:18.026Z,97902.19
2022-10-13T23:11:19.290Z,97902.09
2022-10-13T23:13:20.594Z,97898.72
2022-10-13T23:15:22.034Z,97898.75
2022-10-13T23:17:23.545Z,97901.31
2022-10-13T23:19:25.251Z,97896.28
2022-10-13T23:21:26.579Z,97901.44
2022-10-13T23:23:27.937Z,97894.69
2022-10-13T23:25:29.198Z,97895.63
2022-10-13T23:27:30.460Z,97897.31
2022-10-13T23:29:31.768Z,97907.53
2022-10-13T23:31:33.043Z,97906.75
2022-10-13T23:33:34.378Z,97903.44
2022-10-13T23:35:35.677Z,97899.19
2022-10-13T23:37:37.558Z,97906.00
2022-10-13T23:39:38.826Z,97900.06
2022-10-13T23:41:40.103Z,97897.53
2022-10-13T23:43:41.630Z,97901.81
2022-10-13T23:45:42.908Z,97893.34
2022-10-13T23:47:44.208Z,97889.94
2022-10-13T23:49:45.686Z,97891.72
2022-10-13T23:51:47.138Z,97892.56
2022-10-13T23:53:48.407Z,97891.78
2022-10-13T23:55:49.702Z,97885.75
2022-10-13T23:57:51.134Z,97889.97
2022-10-13T23:59:52.408Z,97891.66
